Fort Smith Regional Airport
KFSM : now visible

Airfield :











YOU CAN JOIN US ON...

 
LOGIN :

Register | Disclaimer

   EN    FR    IT 

 









Legend :    VFR   Marginal VFR   IFR   Intensive IFR   Very Intensive IFR
Visi :
Ceiling :
>= 8 km
>= 3000ft
5 to 8 km
1000 to 3000 ft
1500m to 5 km
500 to 1000 ft
800 to 1500m
200 to 500 ft
< 800m
< 200 ft
Symbols :   Thunderstorms  Fog  Heavy snow  Heavy precipitations  Wind > 20 kt






- Airport Elevation : 469 ft
- IATA code : FSM


KFSM - Fort Smith Regional

CURRENT METAR :
  • 072053Z 18009KT 10SM CLR 27/19 A2980 RMK AO2 SLP088 T02720189 56021

EXPIRED METARs :
  • 071953Z AUTO 19005KT 10SM CLR 26/19 A2982 RMK AO2 SLP095 T02610189
  • 071853Z 22007KT 10SM SCT027 26/19 A2984 RMK AO2 SLP101 T02560189
  • 071819Z 20008KT 10SM SCT029 BKN035 26/19 A2985 RMK AO2 T02560189

TAF KFSM
Valid from the 07 at 18:00 until the 08 at 18:00 UTC


071726Z 0718/0818 23008KT P6SM BKN025
FM072000 22007KT P6SM SCT025 SCT250
FM080100 VRB03KT P6SM SCT250



MET'MAP, your aeronautical weather chart ! - Copyright ORBIFLY December 2007 - Disclaimer

ORBIFLY MET'MAP TEAM :

Programming & Development : Alexandra Zaïnal
Concept & original design : Baudouin d'Aumeries
Assistance for programming : Marc-Olivier Méhu
Technical & hardware support : Manuel Goepfert

Contact : metmap@orbifly.com




SOURCES & CREDITS :

   NOAA       Earth
Advisory